createdAt,value
2023-03-22T00:02:16.421Z,6.78
2023-03-22T00:04:44.392Z,5.90
2023-03-22T00:07:12.264Z,5.93
2023-03-22T00:09:40.240Z,5.88
2023-03-22T00:12:09.570Z,5.47
2023-03-22T00:14:37.720Z,5.22
2023-03-22T00:17:05.600Z,5.72
2023-03-22T00:19:33.968Z,5.43
2023-03-22T00:22:02.030Z,6.03
2023-03-22T00:24:29.888Z,5.72
2023-03-22T00:26:58.653Z,5.13
2023-03-22T00:29:27.942Z,5.10
2023-03-22T00:31:56.269Z,5.20
2023-03-22T00:34:24.195Z,5.65
2023-03-22T00:36:52.966Z,5.20
2023-03-22T00:39:21.071Z,5.20
2023-03-22T00:41:49.141Z,4.95
2023-03-22T00:44:17.129Z,5.00
2023-03-22T00:46:47.309Z,4.78
2023-03-22T00:49:15.492Z,4.50
2023-03-22T00:51:43.551Z,4.57
2023-03-22T00:54:11.957Z,4.43
2023-03-22T00:56:39.907Z,3.85
2023-03-22T00:59:14.443Z,4.38
2023-03-22T01:01:44.454Z,4.43
2023-03-22T01:04:15.509Z,4.50
2023-03-22T01:06:43.357Z,4.03
2023-03-22T01:09:14.871Z,3.75
2023-03-22T01:11:43.480Z,3.80
2023-03-22T01:14:13.916Z,3.63
2023-03-22T01:16:41.982Z,3.60
2023-03-22T01:19:10.394Z,3.60
2023-03-22T01:21:39.525Z,3.30
2023-03-22T01:24:07.979Z,4.05
2023-03-22T01:26:35.840Z,3.85
2023-03-22T01:29:03.925Z,3.05
2023-03-22T01:31:31.766Z,3.33
2023-03-22T01:33:59.612Z,3.63
2023-03-22T01:36:27.826Z,3.10
2023-03-22T01:38:57.529Z,3.15
2023-03-22T01:41:25.486Z,3.70
2023-03-22T01:44:09.839Z,3.50
2023-03-22T01:49:06.524Z,3.28
2023-03-22T01:51:34.964Z,3.35
2023-03-22T01:54:33.894Z,3.33
2023-03-22T01:57:07.591Z,3.53
2023-03-22T01:59:42.975Z,3.67
2023-03-22T02:02:19.259Z,3.63
2023-03-22T02:04:58.002Z,3.40
2023-03-22T02:07:28.924Z,3.72
2023-03-22T02:09:59.880Z,4.32
2023-03-22T02:12:44.579Z,4.22
2023-03-22T02:15:31.194Z,4.00
2023-03-22T02:18:28.059Z,3.85
2023-03-22T02:21:19.528Z,3.67
2023-03-22T02:24:10.890Z,4.85
2023-03-22T02:27:25.022Z,4.72
2023-03-22T02:30:01.320Z,4.97
2023-03-22T02:32:57.398Z,4.63
2023-03-22T02:35:47.818Z,5.63
2023-03-22T02:38:38.095Z,6.00
2023-03-22T02:41:12.800Z,6.35
2023-03-22T02:43:46.276Z,6.20
2023-03-22T02:46:19.126Z,6.47
2023-03-22T02:48:53.837Z,6.53
2023-03-22T02:51:24.288Z,6.75
2023-03-22T02:53:55.512Z,6.97
2023-03-22T02:56:27.054Z,7.32
2023-03-22T02:58:57.425Z,7.70
2023-03-22T03:01:28.073Z,7.60
2023-03-22T03:03:59.334Z,7.97
2023-03-22T03:06:31.184Z,7.30
2023-03-22T03:09:02.869Z,8.20
2023-03-22T03:11:32.574Z,8.45
2023-03-22T03:14:00.957Z,8.55
2023-03-22T03:16:30.388Z,8.35
2023-03-22T03:19:01.653Z,8.98
2023-03-22T03:21:34.825Z,8.30
2023-03-22T03:24:15.568Z,9.10
2023-03-22T03:26:50.957Z,9.68
2023-03-22T03:29:23.525Z,9.65
2023-03-22T03:31:53.932Z,9.40
2023-03-22T03:34:23.944Z,9.85
2023-03-22T03:36:55.904Z,9.88
2023-03-22T03:39:26.336Z,10.10
2023-03-22T03:41:56.315Z,9.55
2023-03-22T03:44:24.635Z,10.18
2023-03-22T03:46:52.692Z,9.43
2023-03-22T03:49:21.782Z,10.20
2023-03-22T03:51:51.491Z,9.45
2023-03-22T03:54:19.868Z,9.52
2023-03-22T03:56:48.401Z,9.70
2023-03-22T03:59:18.014Z,9.82
2023-03-22T04:01:51.862Z,9.48
2023-03-22T04:04:28.567Z,9.88
2023-03-22T04:07:07.470Z,9.73
2023-03-22T04:09:40.381Z,9.73
2023-03-22T04:12:34.938Z,9.77
2023-03-22T04:15:13.854Z,9.68
2023-03-22T04:17:43.825Z,9.50
2023-03-22T04:20:13.603Z,9.43
2023-03-22T04:22:42.433Z,9.85
2023-03-22T04:25:13.423Z,8.73
2023-03-22T04:27:51.481Z,8.90
2023-03-22T04:30:22.918Z,9.35
2023-03-22T04:33:07.047Z,8.52
2023-03-22T04:35:57.162Z,8.48
2023-03-22T04:38:31.106Z,10.50
2023-03-22T04:40:59.221Z,8.38
2023-03-22T04:43:40.812Z,8.65
2023-03-22T04:46:16.088Z,8.60
2023-03-22T04:48:50.751Z,8.50
2023-03-22T04:51:19.210Z,8.13
2023-03-22T04:54:04.134Z,7.85
2023-03-22T04:56:32.094Z,8.10
2023-03-22T04:59:00.830Z,7.20
2023-03-22T05:01:30.523Z,7.38
2023-03-22T05:04:09.623Z,8.05
2023-03-22T05:06:37.995Z,7.60
2023-03-22T05:09:17.144Z,8.15
2023-03-22T05:11:45.184Z,7.68
2023-03-22T05:14:21.798Z,7.47
2023-03-22T05:16:51.186Z,7.85
2023-03-22T05:19:22.589Z,7.45
2023-03-22T05:21:57.943Z,7.32
2023-03-22T05:24:32.810Z,7.07
2023-03-22T05:27:03.779Z,6.55
2023-03-22T05:29:37.110Z,6.90
2023-03-22T05:32:13.387Z,6.65
2023-03-22T05:34:42.872Z,6.82
2023-03-22T05:37:33.219Z,6.80
2023-03-22T05:40:01.855Z,6.57
2023-03-22T05:42:37.764Z,6.05
2023-03-22T05:45:15.407Z,6.03
2023-03-22T05:47:47.546Z,5.70
2023-03-22T05:50:22.198Z,6.10
2023-03-22T05:52:52.142Z,5.97
2023-03-22T05:55:30.275Z,5.93
2023-03-22T05:58:01.576Z,6.38
2023-03-22T06:00:32.314Z,5.70
2023-03-22T06:03:24.496Z,5.47
2023-03-22T06:06:11.594Z,5.15
2023-03-22T06:08:46.522Z,5.47
2023-03-22T06:11:14.862Z,5.07
2023-03-22T06:13:42.647Z,5.10
2023-03-22T06:16:12.196Z,5.60
2023-03-22T06:18:42.125Z,4.90
2023-03-22T06:21:12.883Z,5.13
2023-03-22T06:23:41.419Z,4.60
2023-03-22T06:26:11.456Z,4.88
2023-03-22T06:28:40.842Z,5.00
2023-03-22T06:31:09.928Z,5.05
2023-03-22T06:33:48.656Z,5.18
2023-03-22T06:36:28.151Z,4.50
2023-03-22T06:39:05.574Z,4.60
2023-03-22T06:41:34.224Z,4.40
2023-03-22T06:44:02.722Z,4.15
2023-03-22T06:46:42.814Z,4.75
2023-03-22T06:49:22.118Z,4.70
2023-03-22T06:51:52.662Z,4.55
2023-03-22T06:54:21.237Z,4.30
2023-03-22T06:56:49.152Z,5.20
2023-03-22T06:59:17.443Z,3.92
2023-03-22T07:01:45.768Z,4.35
2023-03-22T07:04:13.748Z,4.55
2023-03-22T07:06:44.321Z,4.20
2023-03-22T07:09:12.575Z,4.22
2023-03-22T07:11:40.617Z,3.92
2023-03-22T07:14:10.113Z,4.20
2023-03-22T07:16:59.983Z,3.47
2023-03-22T07:19:30.001Z,3.28
2023-03-22T07:22:00.581Z,3.60
2023-03-22T07:24:28.614Z,3.28
2023-03-22T07:26:56.550Z,3.83
2023-03-22T07:29:28.315Z,3.08
2023-03-22T07:31:56.629Z,3.15
2023-03-22T07:34:28.448Z,3.40
2023-03-22T07:37:04.713Z,3.45
2023-03-22T07:39:33.045Z,3.80
2023-03-22T07:42:00.807Z,3.83
2023-03-22T07:45:00.726Z,3.22
2023-03-22T07:47:40.432Z,3.35
2023-03-22T07:50:29.298Z,3.53
2023-03-22T07:53:01.747Z,3.05
2023-03-22T07:55:29.762Z,3.55
2023-03-22T07:57:57.695Z,3.28
2023-03-22T08:00:25.917Z,2.95
2023-03-22T08:03:14.120Z,2.70
2023-03-22T08:06:03.868Z,2.90
2023-03-22T08:08:33.187Z,2.72
2023-03-22T08:11:01.026Z,2.88
2023-03-22T08:13:29.172Z,3.08
2023-03-22T08:15:57.288Z,2.92
2023-03-22T08:18:26.132Z,2.85
2023-03-22T08:20:57.173Z,2.60
2023-03-22T08:23:40.501Z,3.85
2023-03-22T08:26:45.902Z,2.72
2023-03-22T08:29:23.128Z,3.78
2023-03-22T08:31:51.897Z,3.55
2023-03-22T08:34:19.822Z,3.50
2023-03-22T08:36:47.749Z,3.80
2023-03-22T08:39:15.947Z,4.00
2023-03-22T08:42:08.892Z,3.17
2023-03-22T08:44:37.864Z,3.05
2023-03-22T08:47:06.353Z,3.22
2023-03-22T08:49:35.110Z,3.58
2023-03-22T08:52:11.529Z,2.72
2023-03-22T08:55:10.073Z,3.22
2023-03-22T08:58:05.270Z,3.30
2023-03-22T09:00:48.980Z,3.20
2023-03-22T09:03:32.229Z,3.00
2023-03-22T09:06:00.146Z,2.63
2023-03-22T09:08:31.850Z,2.92
2023-03-22T09:11:09.371Z,2.97
2023-03-22T09:13:38.971Z,2.65
2023-03-22T09:16:08.945Z,2.45
2023-03-22T09:18:37.813Z,3.15
2023-03-22T09:21:12.221Z,3.20
2023-03-22T09:23:48.207Z,3.53
2023-03-22T09:26:18.356Z,2.50
2023-03-22T09:28:51.290Z,2.35
2023-03-22T09:31:20.707Z,2.08
2023-03-22T09:33:53.696Z,2.75
2023-03-22T09:36:21.794Z,2.55
2023-03-22T09:38:50.068Z,2.50
2023-03-22T09:41:20.654Z,2.30
2023-03-22T09:43:51.932Z,2.35
2023-03-22T09:46:23.618Z,2.83
2023-03-22T09:48:51.844Z,2.95
2023-03-22T09:51:32.429Z,2.70
2023-03-22T09:54:00.477Z,2.50
2023-03-22T09:56:29.790Z,2.83
2023-03-22T09:59:04.312Z,2.60
2023-03-22T10:01:38.963Z,3.00
2023-03-22T10:04:26.500Z,2.88
2023-03-22T10:07:01.357Z,2.83
2023-03-22T10:09:35.292Z,3.40
2023-03-22T10:12:09.199Z,2.90
2023-03-22T10:14:41.487Z,2.78
2023-03-22T10:17:12.784Z,2.63
2023-03-22T10:19:49.831Z,2.08
2023-03-22T10:22:18.910Z,2.80
2023-03-22T10:24:47.986Z,2.55
2023-03-22T10:27:17.824Z,2.33
2023-03-22T10:29:50.078Z,2.42
2023-03-22T10:32:19.461Z,2.63
2023-03-22T10:34:47.588Z,2.83
2023-03-22T10:37:17.044Z,2.85
2023-03-22T10:39:47.368Z,2.97
2023-03-22T10:42:18.099Z,2.30
2023-03-22T10:44:50.393Z,2.42
2023-03-22T10:47:19.497Z,2.20
2023-03-22T10:49:53.118Z,2.60
2023-03-22T10:52:37.014Z,2.58
2023-03-22T10:55:05.572Z,2.67
2023-03-22T10:57:33.492Z,3.05
2023-03-22T11:00:09.824Z,2.33
2023-03-22T11:02:46.177Z,2.78
2023-03-22T11:05:23.071Z,2.88
2023-03-22T11:07:51.647Z,2.35
2023-03-22T11:10:27.465Z,3.13
2023-03-22T11:12:57.241Z,2.85
2023-03-22T11:15:30.302Z,3.03
2023-03-22T11:18:03.441Z,2.42
2023-03-22T11:20:31.777Z,2.88
2023-03-22T11:23:02.716Z,2.67
2023-03-22T11:25:32.275Z,2.90
2023-03-22T11:28:10.336Z,2.30
2023-03-22T11:30:39.988Z,2.92
2023-03-22T11:33:18.583Z,2.35
2023-03-22T11:35:48.098Z,2.40
2023-03-22T11:38:33.256Z,2.63
2023-03-22T11:41:02.995Z,2.60
2023-03-22T11:43:34.524Z,2.97
2023-03-22T11:46:04.703Z,2.53
2023-03-22T11:48:34.102Z,2.55
2023-03-22T11:51:07.454Z,2.25
2023-03-22T11:53:38.521Z,2.47
2023-03-22T11:56:07.837Z,2.67
2023-03-22T11:58:51.627Z,2.65
2023-03-22T12:01:28.713Z,2.80
2023-03-22T12:03:57.957Z,2.15
2023-03-22T12:06:29.060Z,3.03
2023-03-22T12:09:00.669Z,2.42
2023-03-22T12:11:30.861Z,3.17
2023-03-22T12:14:01.377Z,2.40
2023-03-22T12:16:33.632Z,2.67
2023-03-22T12:19:07.782Z,2.33
2023-03-22T12:21:36.183Z,2.40
2023-03-22T12:24:05.059Z,2.50
2023-03-22T12:26:35.211Z,2.78
2023-03-22T12:29:05.699Z,2.80
2023-03-22T12:31:39.434Z,3.08
2023-03-22T12:34:09.346Z,3.20
2023-03-22T12:36:42.722Z,2.65
2023-03-22T12:39:15.709Z,2.78
2023-03-22T12:41:48.030Z,2.92
2023-03-22T12:44:19.137Z,2.53
2023-03-22T12:46:51.232Z,2.25
2023-03-22T12:49:24.527Z,2.80
2023-03-22T12:51:53.507Z,2.47
2023-03-22T12:54:24.605Z,2.75
2023-03-22T12:56:53.034Z,3.03
2023-03-22T12:59:24.287Z,2.83
2023-03-22T13:01:57.383Z,2.80
2023-03-22T13:04:31.693Z,2.60
2023-03-22T13:07:11.180Z,3.30
2023-03-22T13:09:42.356Z,2.63
2023-03-22T13:12:32.156Z,2.75
2023-03-22T13:15:28.338Z,2.80
2023-03-22T13:18:00.756Z,2.97
2023-03-22T13:20:30.931Z,2.30
2023-03-22T13:23:11.800Z,2.65
2023-03-22T13:25:41.452Z,2.55
2023-03-22T13:28:24.040Z,2.85
2023-03-22T13:30:53.664Z,2.63
2023-03-22T13:33:27.309Z,2.88
2023-03-22T13:35:57.307Z,2.58
2023-03-22T13:38:27.316Z,2.72
2023-03-22T13:41:02.062Z,2.97
2023-03-22T13:46:12.055Z,2.45
2023-03-22T13:49:00.391Z,2.60
2023-03-22T13:51:32.033Z,2.30
2023-03-22T13:54:04.700Z,2.78
2023-03-22T13:56:36.193Z,2.75
2023-03-22T13:59:05.304Z,2.20
2023-03-22T14:01:36.310Z,2.65
2023-03-22T14:04:11.226Z,2.35
2023-03-22T14:06:46.117Z,2.92
2023-03-22T14:09:17.577Z,2.80
2023-03-22T14:11:47.380Z,2.78
2023-03-22T14:14:18.927Z,2.05
2023-03-22T14:16:48.689Z,2.67
2023-03-22T14:19:20.037Z,2.88
